Terminal Aerodrome Forecast
Issued by NWS

Home | Current Version | Previous Version | Text Only | Print | Product List | Glossary On
Versions: 1 2 3 4 5 6 7 8 9 10 11 12 13 14 15 16 17 18 19 20 21 22 23 24 25 26 27 28 29 30
207
FTUS45 KGJT 202125 AAB
TAFTEX
TAF AMD
KTEX 202125Z 2021/2118 VRB05KT P6SM VCTS SCT090CB SCT120
      TEMPO 2021/2023 VRB10G20KT -TSRA BKN070CB
     FM210300 16009KT P6SM SCT080 BKN110
     FM210600 14007KT P6SM FEW050 SCT200
     FM211600 17009KT P6SM FEW250=

USA.gov is the U.S. government's official web portal to all federal, state and local government web resources and services.